createdAt,value
2023-03-13T00:02:42.745Z,24.02
2023-03-13T00:06:42.847Z,24.02
2023-03-13T00:10:43.001Z,24.02
2023-03-13T00:14:43.137Z,24.01
2023-03-13T00:18:43.247Z,24.02
2023-03-13T00:22:43.338Z,24.00
2023-03-13T00:26:43.447Z,24.00
2023-03-13T00:30:43.568Z,24.00
2023-03-13T00:34:43.584Z,24.00
2023-03-13T00:38:43.735Z,23.99
2023-03-13T00:42:43.781Z,23.99
2023-03-13T00:46:43.884Z,23.99
2023-03-13T00:50:43.931Z,23.98
2023-03-13T00:54:43.958Z,23.98
2023-03-13T00:58:44.049Z,23.99
2023-03-13T01:02:44.267Z,23.98
2023-03-13T01:06:44.130Z,23.98
2023-03-13T01:10:44.163Z,23.98
2023-03-13T01:14:44.153Z,23.97
2023-03-13T01:18:44.170Z,23.98
2023-03-13T01:22:44.171Z,23.96
2023-03-13T01:26:44.174Z,23.96
2023-03-13T01:30:44.250Z,23.96
2023-03-13T01:34:44.180Z,23.96
2023-03-13T01:38:44.205Z,23.96
2023-03-13T01:42:44.203Z,23.96
2023-03-13T01:46:44.317Z,23.96
2023-03-13T01:50:44.314Z,23.96
2023-03-13T01:54:44.395Z,23.96
2023-03-13T01:58:44.476Z,23.96
2023-03-13T02:02:44.502Z,23.94
2023-03-13T02:06:44.612Z,23.94
2023-03-13T02:10:44.758Z,23.94
2023-03-13T02:14:44.925Z,23.94
2023-03-13T02:18:45.049Z,23.94
2023-03-13T02:22:45.259Z,23.94
2023-03-13T02:26:47.033Z,23.94
2023-03-13T02:30:45.536Z,23.94
2023-03-13T02:34:45.688Z,23.93
2023-03-13T02:38:45.867Z,23.94
2023-03-13T02:42:46.143Z,23.93
2023-03-13T02:46:46.235Z,23.93
2023-03-13T02:50:46.257Z,23.94
2023-03-13T02:54:46.356Z,23.93
2023-03-13T02:58:50.645Z,23.93
2023-03-13T03:02:46.502Z,23.93
2023-03-13T03:06:46.454Z,23.92
2023-03-13T03:10:46.426Z,23.93
2023-03-13T03:14:46.413Z,23.92
2023-03-13T03:18:46.324Z,23.92
2023-03-13T03:22:46.301Z,23.92
2023-03-13T03:26:46.270Z,23.92
2023-03-13T03:30:46.236Z,23.92
2023-03-13T03:34:46.211Z,23.92
2023-03-13T03:38:46.173Z,23.92
2023-03-13T03:42:46.161Z,23.93
2023-03-13T03:46:46.107Z,23.93
2023-03-13T03:50:46.102Z,23.92
2023-03-13T03:54:46.573Z,23.91
2023-03-13T03:58:46.101Z,23.93
2023-03-13T04:02:46.122Z,23.92
2023-03-13T04:06:46.096Z,23.92
2023-03-13T04:10:46.067Z,23.92
2023-03-13T04:14:46.042Z,23.92
2023-03-13T04:18:46.076Z,23.92
2023-03-13T04:22:46.096Z,23.92
2023-03-13T04:26:46.077Z,23.92
2023-03-13T04:30:46.136Z,23.92
2023-03-13T04:34:46.042Z,23.92
2023-03-13T04:38:45.981Z,23.92
2023-03-13T04:42:46.014Z,23.91
2023-03-13T04:46:46.039Z,23.91
2023-03-13T04:50:46.109Z,23.91
2023-03-13T04:54:46.041Z,23.91
2023-03-13T04:58:47.061Z,23.92
2023-03-13T05:02:45.983Z,23.92
2023-03-13T05:06:45.959Z,23.92
2023-03-13T05:10:45.929Z,23.93
2023-03-13T05:14:45.915Z,23.93
2023-03-13T05:18:45.907Z,23.93
2023-03-13T05:22:45.903Z,23.93
2023-03-13T05:26:46.104Z,23.93
2023-03-13T05:30:46.060Z,23.94
2023-03-13T05:34:46.229Z,23.94
2023-03-13T05:38:46.265Z,23.93
2023-03-13T05:42:46.318Z,23.95
2023-03-13T05:46:46.390Z,23.95
2023-03-13T05:50:46.309Z,23.95
2023-03-13T05:54:46.315Z,23.96
2023-03-13T05:58:46.335Z,23.96
2023-03-13T06:02:46.338Z,23.97
2023-03-13T06:06:46.420Z,23.98
2023-03-13T06:10:46.426Z,23.98
2023-03-13T06:14:46.602Z,23.99
2023-03-13T06:18:46.652Z,24.00
2023-03-13T06:22:46.813Z,24.02
2023-03-13T06:26:49.318Z,24.03
2023-03-13T06:30:46.856Z,23.86
2023-03-13T06:34:46.877Z,23.75
2023-03-13T06:38:46.808Z,23.72
2023-03-13T06:42:47.217Z,23.75
2023-03-13T06:46:46.859Z,23.96
2023-03-13T06:50:46.706Z,24.19
2023-03-13T06:54:46.670Z,24.38
2023-03-13T06:58:46.617Z,24.52
2023-03-13T07:02:51.622Z,24.72
2023-03-13T07:06:46.580Z,24.85
2023-03-13T07:10:46.533Z,24.97
2023-03-13T07:14:46.529Z,25.09
2023-03-13T07:18:46.453Z,25.18
2023-03-13T07:22:46.646Z,25.26
2023-03-13T07:27:03.466Z,25.28
2023-03-13T07:30:47.384Z,25.33
2023-03-13T07:34:46.324Z,25.13
2023-03-13T07:38:46.653Z,23.07
2023-03-13T07:42:46.753Z,22.02
2023-03-13T07:46:46.676Z,21.44
2023-03-13T07:50:46.666Z,20.98
2023-03-13T07:54:46.239Z,20.94
2023-03-13T07:58:46.185Z,21.36
2023-03-13T08:02:46.207Z,21.72
2023-03-13T08:06:46.255Z,21.93
2023-03-13T08:10:49.679Z,22.00
2023-03-13T08:19:05.188Z,22.08
2023-03-13T08:23:05.342Z,22.11
2023-03-13T08:27:05.334Z,22.17
2023-03-13T08:31:05.377Z,21.40
2023-03-13T08:35:05.392Z,21.89
2023-03-13T08:39:05.354Z,22.52
2023-03-13T08:43:05.198Z,23.15
2023-03-13T08:47:06.361Z,23.60
2023-03-13T08:51:05.843Z,23.90
2023-03-13T08:55:05.686Z,24.12
2023-03-13T08:59:05.974Z,24.29
2023-03-13T09:03:06.127Z,24.44
2023-03-13T09:07:06.336Z,24.57
2023-03-13T09:11:06.867Z,24.69
2023-03-13T09:15:06.836Z,24.77
2023-03-13T09:19:06.629Z,24.85
2023-03-13T09:23:06.831Z,24.83
2023-03-13T09:27:06.899Z,24.80
2023-03-13T09:31:07.409Z,24.72
2023-03-13T09:35:07.121Z,24.67
2023-03-13T09:39:07.344Z,24.42
2023-03-13T09:43:07.357Z,24.52
2023-03-13T09:47:07.887Z,24.66
2023-03-13T09:51:07.638Z,24.80
2023-03-13T09:55:07.717Z,24.95
2023-03-13T09:59:10.427Z,25.12
2023-03-13T10:03:08.346Z,25.18
2023-03-13T10:07:07.687Z,25.23
2023-03-13T10:11:08.378Z,25.08
2023-03-13T10:15:07.894Z,24.68
2023-03-13T10:19:07.552Z,24.03
2023-03-13T10:23:07.860Z,24.21
2023-03-13T10:27:07.589Z,24.43
2023-03-13T10:31:07.892Z,23.71
2023-03-13T10:35:07.991Z,21.86
2023-03-13T10:39:07.916Z,20.58
2023-03-13T10:43:08.312Z,20.01
2023-03-13T10:47:07.296Z,19.73
2023-03-13T10:51:07.390Z,19.68
2023-03-13T10:55:07.412Z,19.77
2023-03-13T10:59:07.363Z,19.73
2023-03-13T11:03:07.374Z,19.90
2023-03-13T11:07:07.362Z,19.95
2023-03-13T11:11:07.413Z,19.81
2023-03-13T11:15:08.058Z,19.92
2023-03-13T11:19:07.701Z,20.11
2023-03-13T11:23:10.140Z,20.57
2023-03-13T11:27:08.344Z,20.97
2023-03-13T11:31:08.044Z,21.26
2023-03-13T11:35:07.941Z,21.58
2023-03-13T11:39:07.559Z,21.60
2023-03-13T11:43:23.686Z,21.60
2023-03-13T11:47:08.490Z,21.60
2023-03-13T11:51:07.453Z,21.44
2023-03-13T11:55:07.460Z,21.08
2023-03-13T11:59:07.714Z,21.48
2023-03-13T12:03:07.880Z,21.83
2023-03-13T12:07:07.887Z,22.13
2023-03-13T12:11:12.952Z,22.41
2023-03-13T12:15:07.996Z,22.36
2023-03-13T12:19:08.243Z,22.33
2023-03-13T12:23:07.876Z,22.34
2023-03-13T12:27:07.674Z,22.46
2023-03-13T12:31:07.859Z,22.55
2023-03-13T12:35:08.005Z,22.60
2023-03-13T12:39:07.949Z,22.61
2023-03-13T12:43:08.050Z,22.58
2023-03-13T12:47:07.859Z,22.60
2023-03-13T12:51:07.841Z,22.60
2023-03-13T12:55:07.826Z,22.60
2023-03-13T12:59:07.767Z,22.42
2023-03-13T13:03:07.746Z,22.33
2023-03-13T13:07:07.980Z,22.62
2023-03-13T13:11:07.803Z,22.86
2023-03-13T13:15:07.649Z,23.06
2023-03-13T13:19:07.631Z,23.22
2023-03-13T13:23:07.573Z,23.35
2023-03-13T13:27:07.544Z,23.46
2023-03-13T13:31:07.613Z,23.56
2023-03-13T13:35:07.559Z,23.62
2023-03-13T13:39:07.567Z,23.70
2023-03-13T13:43:07.729Z,23.74
2023-03-13T13:47:07.880Z,23.80
2023-03-13T13:51:07.785Z,23.85
2023-03-13T13:55:07.786Z,23.89
2023-03-13T13:59:07.778Z,23.92
2023-03-13T14:03:07.770Z,23.95
2023-03-13T14:07:08.011Z,23.99
2023-03-13T14:11:08.025Z,24.02
2023-03-13T14:15:08.306Z,24.04
2023-03-13T14:19:08.260Z,24.05
2023-03-13T14:23:08.443Z,24.08
2023-03-13T14:27:09.008Z,24.09
2023-03-13T14:31:08.799Z,24.11
2023-03-13T14:35:08.579Z,24.12
2023-03-13T14:39:08.518Z,24.12
2023-03-13T14:43:08.485Z,24.14
2023-03-13T14:47:08.512Z,24.14
2023-03-13T14:51:15.055Z,24.14
2023-03-13T14:55:09.475Z,24.13
2023-03-13T14:59:08.670Z,24.13
2023-03-13T15:03:08.812Z,24.13
2023-03-13T15:07:08.983Z,24.12
2023-03-13T15:11:09.173Z,24.12
2023-03-13T15:15:09.358Z,24.11
2023-03-13T15:19:10.607Z,24.10
2023-03-13T15:23:09.702Z,24.09
2023-03-13T15:27:09.828Z,24.07
2023-03-13T15:31:09.928Z,24.06
2023-03-13T15:35:10.021Z,24.06
2023-03-13T15:39:10.147Z,24.09
2023-03-13T15:43:10.305Z,24.12
2023-03-13T15:47:10.582Z,24.15
2023-03-13T15:51:10.487Z,24.17
2023-03-13T15:55:10.449Z,24.18
2023-03-13T15:59:10.454Z,24.19
2023-03-13T16:03:10.378Z,24.19
2023-03-13T16:07:10.364Z,24.22
2023-03-13T16:11:10.355Z,24.24
2023-03-13T16:15:10.294Z,24.25
2023-03-13T16:19:10.269Z,24.22
2023-03-13T16:23:10.233Z,24.24
2023-03-13T16:27:10.305Z,24.25
2023-03-13T16:31:10.686Z,24.23
2023-03-13T16:35:10.534Z,24.24
2023-03-13T16:39:10.519Z,24.26
2023-03-13T16:43:10.481Z,24.28
2023-03-13T16:47:10.457Z,24.28
2023-03-13T16:51:10.376Z,24.30
2023-03-13T16:55:10.323Z,24.31
2023-03-13T16:59:10.339Z,24.32
2023-03-13T17:03:10.278Z,24.31
2023-03-13T17:07:10.240Z,24.35
2023-03-13T17:11:10.194Z,24.37
2023-03-13T17:15:10.196Z,24.38
2023-03-13T17:19:10.417Z,24.37
2023-03-13T17:23:10.604Z,24.37
2023-03-13T17:27:10.864Z,24.33
2023-03-13T17:31:10.839Z,24.30
2023-03-13T17:35:10.825Z,24.26
2023-03-13T17:39:10.760Z,24.24
2023-03-13T17:43:10.686Z,24.20
2023-03-13T17:47:10.727Z,24.18
2023-03-13T17:51:10.620Z,24.16
2023-03-13T17:55:10.770Z,24.13
2023-03-13T17:59:10.547Z,24.12
2023-03-13T18:03:10.559Z,24.10
2023-03-13T18:07:10.549Z,24.08
2023-03-13T18:11:10.738Z,24.06
2023-03-13T18:15:10.918Z,24.05
2023-03-13T18:19:11.073Z,24.04
2023-03-13T18:23:11.207Z,24.03
2023-03-13T18:27:11.346Z,24.02
2023-03-13T18:31:11.461Z,24.01
2023-03-13T18:35:11.541Z,24.00
2023-03-13T18:39:11.719Z,23.99
2023-03-13T18:43:11.776Z,23.98
2023-03-13T18:47:11.849Z,23.97
2023-03-13T18:51:11.869Z,23.96
2023-03-13T18:55:11.938Z,23.95
2023-03-13T18:59:11.894Z,23.95
2023-03-13T19:03:11.930Z,23.94
2023-03-13T19:07:11.919Z,23.94
2023-03-13T19:11:11.888Z,23.93
2023-03-13T19:15:11.889Z,23.93
2023-03-13T19:19:11.883Z,23.92
2023-03-13T19:23:11.913Z,23.92
2023-03-13T19:27:11.919Z,23.92
2023-03-13T19:31:12.031Z,23.91
2023-03-13T19:35:11.987Z,23.91
2023-03-13T19:39:11.967Z,23.91
2023-03-13T19:43:11.961Z,23.91
2023-03-13T19:47:11.973Z,23.91
2023-03-13T19:51:12.020Z,23.90
2023-03-13T19:55:12.020Z,23.91
2023-03-13T19:59:12.045Z,23.90
2023-03-13T20:03:12.109Z,23.90
2023-03-13T20:07:12.057Z,23.90
2023-03-13T20:11:12.058Z,23.90
2023-03-13T20:15:12.059Z,23.91
2023-03-13T20:19:12.053Z,23.91
2023-03-13T20:23:12.062Z,23.91
2023-03-13T20:27:12.109Z,23.91
2023-03-13T20:31:12.093Z,23.91
2023-03-13T20:35:12.102Z,23.92
2023-03-13T20:39:12.017Z,23.91
2023-03-13T20:43:12.010Z,23.91
2023-03-13T20:47:12.033Z,23.92
2023-03-13T20:51:12.076Z,23.91
2023-03-13T20:55:12.130Z,23.91
2023-03-13T20:59:12.149Z,23.91
2023-03-13T21:03:12.218Z,23.91
2023-03-13T21:07:12.322Z,23.92
2023-03-13T21:11:12.293Z,23.91
2023-03-13T21:15:12.349Z,23.92
2023-03-13T21:19:12.380Z,23.92
2023-03-13T21:23:12.423Z,23.91
2023-03-13T21:27:12.474Z,23.91
2023-03-13T21:31:12.484Z,23.90
2023-03-13T21:35:12.428Z,23.91
2023-03-13T21:39:12.443Z,23.90
2023-03-13T21:43:12.398Z,23.90
2023-03-13T21:47:12.489Z,23.89
2023-03-13T21:51:12.367Z,23.89
2023-03-13T21:55:12.396Z,23.88
2023-03-13T21:59:12.352Z,23.88
2023-03-13T22:03:12.409Z,23.88
2023-03-13T22:07:12.329Z,23.88
2023-03-13T22:11:12.285Z,23.87
2023-03-13T22:15:12.261Z,23.86
2023-03-13T22:19:12.251Z,23.86
2023-03-13T22:23:12.268Z,23.86
2023-03-13T22:27:12.223Z,23.86
2023-03-13T22:31:12.250Z,23.86
2023-03-13T22:35:12.321Z,23.85
2023-03-13T22:39:12.162Z,23.84
2023-03-13T22:43:12.204Z,23.84
2023-03-13T22:47:12.148Z,23.84
2023-03-13T22:51:12.150Z,23.83
2023-03-13T22:55:12.142Z,23.83
2023-03-13T22:59:12.117Z,23.82
2023-03-13T23:03:12.127Z,23.83
2023-03-13T23:07:12.123Z,23.82
2023-03-13T23:11:12.162Z,23.82
2023-03-13T23:15:12.144Z,23.81
2023-03-13T23:19:12.091Z,23.80
2023-03-13T23:23:12.088Z,23.80
2023-03-13T23:27:12.074Z,23.80
2023-03-13T23:31:12.089Z,23.80
2023-03-13T23:35:12.067Z,23.79
2023-03-13T23:39:12.111Z,23.79
2023-03-13T23:43:12.083Z,23.78
2023-03-13T23:47:12.096Z,23.77
2023-03-13T23:51:12.215Z,23.77
2023-03-13T23:55:12.185Z,23.77
2023-03-13T23:59:12.204Z,23.77
